ADDS METAR Data INFO
IDs: Format: Raw Decoded Include TAF

Data at: 1048 UTC 19 Oct 2017

KPSK 191035Z AUTO 00000KT 10SM CLR 04/03 A3033 RMK AO2 T00360034
KPSK 191015Z AUTO 00000KT 10SM CLR 04/04 A3032 RMK AO2 T00400036
KPSK 190955Z AUTO 00000KT 10SM CLR 04/03 A3033 RMK AO2 T00370034
KPSK 190935Z AUTO 00000KT 10SM CLR 04/03 A3032 RMK AO2 T00380034
KPSK 190915Z AUTO 00000KT 10SM CLR 04/04 A3032 RMK AO2 T00420037
KPSK 190855Z AUTO 00000KT 10SM CLR 05/04 A3032 RMK AO2 T00450040
KPSK 190835Z AUTO 00000KT 10SM CLR 05/04 A3032 RMK AO2 T00490043
KPSK 190815Z AUTO 00000KT 10SM CLR 05/05 A3032 RMK AO2 T00500045
KPSK 190755Z AUTO 00000KT 10SM CLR 05/04 A3032 RMK AO2 T00480043
KPSK 190735Z AUTO 00000KT 10SM CLR 05/04 A3032 RMK AO2 T00470040
KPSK 190715Z AUTO 00000KT 10SM CLR 05/04 A3033 RMK AO2 T00510044
KPSK 190655Z AUTO 00000KT 10SM CLR 05/04 A3033 RMK AO2 T00500040
KPSK 190635Z AUTO 00000KT 10SM CLR 07/05 A3033 RMK AO2 T00650052
KPSK 190615Z AUTO 00000KT 10SM CLR 07/05 A3033 RMK AO2 T00650053
KPSK 190555Z AUTO 00000KT 10SM CLR 07/05 A3034 RMK AO2 T00680053 10144 20065 402060016
KPSK 190535Z AUTO 00000KT 10SM CLR 07/05 A3034 RMK AO2 T00670052
KPSK 190515Z AUTO 00000KT 10SM CLR 08/06 A3034 RMK AO2 T00790057
KPSK 190455Z AUTO 00000KT 10SM CLR 07/06 A3035 RMK AO2 T00710056
KPSK 190435Z AUTO 00000KT 10SM CLR 08/06 A3035 RMK AO2 T00750060
KPSK 190415Z AUTO 00000KT 10SM CLR 08/06 A3035 RMK AO2 T00770059
KPSK 190355Z AUTO 00000KT 10SM CLR 08/06 A3035 RMK AO2 T00790056
KPSK 190335Z AUTO 00000KT 10SM CLR 09/06 A3036 RMK AO2 T00900058
KPSK 190315Z AUTO 00000KT 10SM CLR 09/06 A3036 RMK AO2 T00940061
KPSK 190255Z AUTO 00000KT 10SM CLR 10/06 A3036 RMK AO2 T00950064
KPSK 190235Z AUTO 00000KT 10SM CLR 10/07 A3036 RMK AO2 T00960065
KPSK 190215Z AUTO 00000KT 10SM CLR 10/06 A3036 RMK AO2 T00970063
KPSK 190155Z AUTO 00000KT 10SM CLR 10/06 A3035 RMK AO2 T01000055
KPSK 190135Z AUTO 00000KT 10SM CLR 11/06 A3034 RMK AO2 T01100056
KPSK 190115Z AUTO 00000KT 10SM CLR 12/05 A3035 RMK AO2 T01200051
KPSK 190055Z AUTO 00000KT 10SM CLR 12/05 A3035 RMK AO2 T01220051
KPSK 190035Z AUTO 00000KT 10SM CLR 13/05 A3034 RMK AO2 T01320050
KPSK 190015Z AUTO 00000KT 10SM CLR 14/05 A3035 RMK AO2 T01380049
KPSK 182355Z AUTO 00000KT 10SM CLR 15/05 A3034 RMK AO2 T01450050 10206 20145
KPSK 182335Z AUTO 00000KT 10SM CLR 15/05 A3034 RMK AO2 T01450050
KPSK 182315Z AUTO 13005KT 10SM CLR 15/05 A3034 RMK AO2 T01510052
KPSK 182255Z AUTO 12004KT 10SM CLR 15/06 A3033 RMK AO2 T01530061
KPSK 182235Z AUTO 11003KT 10SM CLR 17/06 A3033 RMK AO2 T01680056
KPSK 182215Z AUTO 11005KT 10SM CLR 18/06 A3032 RMK AO2 T01760060
KPSK 182155Z AUTO 09005KT 10SM CLR 19/05 A3032 RMK AO2 T01850051
KPSK 182135Z AUTO 09005KT 10SM CLR 20/05 A3032 RMK AO2 T01990050
KPSK 182115Z AUTO 12003KT 10SM CLR 20/05 A3032 RMK AO2 T01990048
KPSK 182055Z AUTO 11004KT 10SM CLR 20/05 A3032 RMK AO2 T02020046
KPSK 182035Z AUTO 00000KT 10SM CLR 21/05 A3032 RMK AO2 T02050046
KPSK 182015Z AUTO 08003KT 10SM CLR 20/05 A3033 RMK AO2 T02030053
KPSK 181955Z AUTO 15005KT 10SM CLR 20/05 A3033 RMK AO2 T02020054
KPSK 181935Z AUTO 11003KT 10SM CLR 20/06 A3034 RMK AO2 T01990056
KPSK 181915Z AUTO 19003KT 10SM CLR 20/06 A3034 RMK AO2 T02010059
KPSK 181855Z AUTO 00000KT 10SM CLR 20/07 A3035 RMK AO2 T01970067
KPSK 181835Z AUTO 13004KT 10SM CLR 20/07 A3036 RMK AO2 T01950067
KPSK 181815Z AUTO 20003KT 10SM CLR 19/07 A3036 RMK AO2 T01910065
KPSK 181755Z AUTO 08003KT 10SM CLR 18/07 A3037 RMK AO2 T01830067 10183 20017
KPSK 181735Z AUTO 20004KT 4SM HZ CLR 18/06 A3038 RMK AO2 T01760063
KPSK 181715Z AUTO 14004KT 5SM HZ CLR 17/07 A3040 RMK AO2 T01700066
KPSK 181655Z AUTO 00000KT 3SM HZ CLR 16/07 A3040 RMK AO2 T01610070
KPSK 181635Z AUTO 00000KT 7SM CLR 16/07 A3041 RMK AO2 T01550074
KPSK 181615Z AUTO 00000KT 10SM CLR 14/08 A3042 RMK AO2 T01420077
KPSK 181555Z AUTO 00000KT 10SM CLR 14/07 A3042 RMK AO2 T01350070
KPSK 181535Z AUTO 00000KT 10SM CLR 13/07 A3042 RMK AO2 T01290074
KPSK 181515Z AUTO 00000KT 10SM CLR 12/08 A3042 RMK AO2 T01170075
KPSK 181455Z AUTO 00000KT 10SM CLR 11/07 A3042 RMK AO2 T01100072
KPSK 181435Z AUTO 00000KT 10SM CLR 10/07 A3042 RMK AO2 T00960067
KPSK 181415Z AUTO 00000KT 10SM CLR 09/07 A3042 RMK AO2 T00860065
KPSK 181355Z AUTO 00000KT 10SM CLR 07/06 A3042 RMK AO2 T00720061
KPSK 181335Z AUTO 00000KT 10SM CLR 06/06 A3041 RMK AO2 T00630059
KPSK 181315Z AUTO 22003KT 10SM CLR 06/06 A3041 RMK AO2 T00550055
KPSK 181255Z AUTO 00000KT 10SM CLR 04/04 A3041 RMK AO2 T00390039
KPSK 181235Z AUTO 00000KT 10SM CLR 03/03 A3039 RMK AO2 T00270027
KPSK 181215Z AUTO 00000KT 10SM CLR 02/02 A3038 RMK AO2 T00200020
KPSK 181155Z AUTO 00000KT 10SM CLR 02/02 A3038 RMK AO2 T00200018 10050 20016
KPSK 181135Z AUTO 00000KT 7SM CLR 02/02 A3038 RMK AO2 T00190018
KPSK 181115Z AUTO 00000KT 10SM CLR 02/02 A3038 RMK AO2 T00230021
KPSK 181055Z AUTO 00000KT 10SM CLR 02/02 A3037 RMK AO2 T00220021
KPSK 181035Z AUTO 00000KT 10SM SCT002 02/02 A3038 RMK AO2 T00170016
KPSK 181015Z AUTO 28003KT 10SM BKN002 02/02 A3037 RMK AO2 T00170015
KPSK 180955Z AUTO 28003KT 10SM CLR 03/03 A3037 RMK AO2 T00300027
KPSK 180935Z AUTO 00000KT 10SM CLR 03/03 A3036 RMK AO2 T00320030
KPSK 180915Z AUTO 00000KT 10SM CLR 03/03 A3036 RMK AO2 T00320029
KPSK 180855Z AUTO 00000KT 10SM CLR 03/03 A3035 RMK AO2 T00310028
KPSK 180835Z AUTO 00000KT 10SM CLR 03/02 A3035 RMK AO2 T00270022
KPSK 180815Z AUTO 08003KT 10SM CLR 03/02 A3035 RMK AO2 T00280022
KPSK 180755Z AUTO 00000KT 10SM CLR 03/03 A3035 RMK AO2 T00320025
KPSK 180735Z AUTO 00000KT 10SM CLR 04/03 A3035 RMK AO2 T00380029
KPSK 180715Z AUTO 00000KT 10SM CLR 05/04 A3035 RMK AO2 T00450036
KPSK 180655Z AUTO 00000KT 10SM CLR 04/03 A3035 RMK AO2 T00410031
KPSK 180635Z AUTO 00000KT 10SM CLR 04/03 A3035 RMK AO2 T00410031
KPSK 180615Z AUTO 00000KT 10SM CLR 05/04 A3035 RMK AO2 T00500037
KPSK 180555Z AUTO 23003KT 10SM CLR 05/04 A3035 RMK AO2 T00470035 10120 20042 401700022
KPSK 180535Z AUTO 00000KT 10SM CLR 05/03 A3035 RMK AO2 T00450033
KPSK 180515Z AUTO 30003KT 10SM CLR 05/04 A3034 RMK AO2 T00500035
KPSK 180455Z AUTO 00000KT 10SM CLR 06/04 A3035 RMK AO2 T00600040
KPSK 180435Z AUTO 00000KT 10SM CLR 06/04 A3035 RMK AO2 T00570040
KPSK 180415Z AUTO 00000KT 10SM CLR 06/04 A3036 RMK AO2 T00580037
KPSK 180355Z AUTO 00000KT 10SM CLR 07/04 A3036 RMK AO2 T00650043
KPSK 180335Z AUTO 00000KT 10SM CLR 06/04 A3035 RMK AO2 T00590042
KPSK 180315Z AUTO 00000KT 10SM CLR 06/04 A3036 RMK AO2 T00600041
KPSK 180255Z AUTO 00000KT 10SM CLR 07/04 A3036 RMK AO2 T00650042
KPSK 180235Z AUTO 32003KT 10SM CLR 06/04 A3036 RMK AO2 T00640042
KPSK 180215Z AUTO 00000KT 10SM CLR 08/04 A3036 RMK AO2 T00750041
KPSK 180155Z AUTO 00000KT 10SM CLR 08/04 A3035 RMK AO2 T00820043
KPSK 180135Z AUTO 00000KT 10SM CLR 08/04 A3034 RMK AO2 T00770041
KPSK 180115Z AUTO 08003KT 10SM CLR 09/05 A3034 RMK AO2 T00850045
KPSK 180055Z AUTO 00000KT 10SM CLR 08/05 A3033 RMK AO2 T00830045
KPSK 180035Z AUTO 28003KT 10SM CLR 09/04 A3033 RMK AO2 T00870041
KPSK 180015Z AUTO 29003KT 10SM CLR 10/04 A3033 RMK AO2 T00990039
KPSK 172355Z AUTO 00000KT 10SM CLR 12/03 A3032 RMK AO2 T01200025 10170 20116
KPSK 172335Z AUTO 00000KT 10SM CLR 12/03 A3031 RMK AO2 T01230033
KPSK 172315Z AUTO 00000KT 10SM CLR 14/02 A3031 RMK AO2 T01350021
KPSK 172255Z AUTO 00000KT 10SM CLR 15/01 A3031 RMK AO2 T01490011